createdAt,value
2022-08-05T00:02:43.806Z,0
2022-08-05T00:08:00.654Z,0
2022-08-05T00:12:48.567Z,0
2022-08-05T00:27:43.914Z,0
2022-08-05T00:32:47.983Z,0
2022-08-05T00:37:55.416Z,0
2022-08-05T00:42:42.979Z,0
2022-08-05T00:47:53.624Z,0
2022-08-05T00:52:45.348Z,0
2022-08-05T00:57:55.855Z,0
2022-08-05T01:02:43.464Z,0
2022-08-05T01:08:30.473Z,0
2022-08-05T01:12:42.668Z,0
2022-08-05T01:17:44.708Z,0
2022-08-05T01:22:42.726Z,0
2022-08-05T01:27:50.581Z,0
2022-08-05T01:32:42.699Z,0
2022-08-05T01:37:44.728Z,0
2022-08-05T01:42:42.708Z,0
2022-08-05T01:47:44.791Z,0
2022-08-05T01:52:42.743Z,0
2022-08-05T01:58:08.881Z,0
2022-08-05T02:02:46.349Z,0
2022-08-05T02:07:42.663Z,0
2022-08-05T02:12:42.691Z,0
2022-08-05T02:18:29.153Z,0
2022-08-05T02:22:42.710Z,0
2022-08-05T02:27:57.793Z,0
2022-08-05T02:32:42.761Z,0
2022-08-05T02:37:42.715Z,0
2022-08-05T02:42:43.182Z,0
2022-08-05T02:48:06.274Z,0
2022-08-05T02:52:42.718Z,0
2022-08-05T02:58:09.618Z,0
2022-08-05T03:02:43.032Z,0
2022-08-05T03:08:01.977Z,0
2022-08-05T03:12:42.818Z,0
2022-08-05T03:17:44.946Z,0
2022-08-05T03:22:43.994Z,0
2022-08-05T03:27:59.711Z,0
2022-08-05T03:32:44.183Z,0
2022-08-05T03:37:45.951Z,256
2022-08-05T03:42:51.431Z,258
2022-08-05T03:47:43.033Z,259
2022-08-05T03:53:12.386Z,261
2022-08-05T03:57:45.201Z,265
2022-08-05T04:02:45.150Z,270
2022-08-05T04:07:51.435Z,274
2022-08-05T04:17:56.053Z,292
2022-08-05T04:22:42.822Z,298
2022-08-05T04:27:57.524Z,295
2022-08-05T04:32:42.752Z,295
2022-08-05T04:38:01.923Z,317
2022-08-05T04:42:42.823Z,338
2022-08-05T04:47:47.252Z,342
2022-08-05T04:52:42.803Z,397
2022-08-05T04:57:47.638Z,434
2022-08-05T05:02:44.803Z,400
2022-08-05T05:07:45.609Z,394
2022-08-05T05:12:42.747Z,366
2022-08-05T05:17:56.065Z,398
2022-08-05T05:22:44.041Z,415
2022-08-05T05:27:45.298Z,395
2022-08-05T05:32:42.795Z,397
2022-08-05T05:37:59.292Z,411
2022-08-05T05:42:42.788Z,451
2022-08-05T05:48:05.927Z,556
2022-08-05T05:52:46.553Z,537
2022-08-05T05:57:52.522Z,420
2022-08-05T06:02:42.749Z,468
2022-08-05T06:07:42.815Z,466
2022-08-05T06:12:42.791Z,589
2022-08-05T06:17:52.573Z,832
2022-08-05T06:22:42.781Z,961
2022-08-05T06:28:08.881Z,965
2022-08-05T06:32:42.806Z,992
2022-08-05T06:37:57.255Z,846
2022-08-05T06:42:42.830Z,712
2022-08-05T06:48:12.181Z,586
2022-08-05T06:52:42.808Z,521
2022-08-05T06:57:58.299Z,746
2022-08-05T07:02:42.833Z,776
2022-08-05T07:07:44.097Z,790
2022-08-05T07:12:42.872Z,635
2022-08-05T07:17:57.747Z,675
2022-08-05T07:22:42.923Z,647
2022-08-05T07:27:56.984Z,525
2022-08-05T07:32:42.806Z,764
2022-08-05T07:37:43.830Z,734
2022-08-05T07:42:43.941Z,729
2022-08-05T07:47:42.839Z,751
2022-08-05T07:52:42.913Z,813
2022-08-05T07:57:52.381Z,983
2022-08-05T08:03:14.477Z,1078
2022-08-05T08:07:59.371Z,1302
2022-08-05T08:12:48.976Z,1596
2022-08-05T08:17:46.364Z,1656
2022-08-05T08:22:42.912Z,1525
2022-08-05T08:27:47.705Z,874
2022-08-05T08:32:42.856Z,1233
2022-08-05T08:37:45.023Z,1586
2022-08-05T08:42:46.889Z,1350
2022-08-05T08:47:47.892Z,1249
2022-08-05T08:52:42.836Z,1344
2022-08-05T08:57:48.564Z,1525
2022-08-05T09:02:42.926Z,3696
2022-08-05T09:07:57.203Z,1291
2022-08-05T09:12:42.936Z,2199
2022-08-05T09:17:45.796Z,1519
2022-08-05T09:22:42.982Z,11148
2022-08-05T09:28:03.709Z,1875
2022-08-05T09:32:45.874Z,1878
2022-08-05T09:38:13.182Z,12721
2022-08-05T09:42:43.026Z,5489
2022-08-05T09:47:48.905Z,9630
2022-08-05T09:52:45.014Z,1357
2022-08-05T09:57:44.909Z,1001
2022-08-05T10:02:42.983Z,12349
2022-08-05T10:08:11.282Z,12980
2022-08-05T10:12:49.106Z,10954
2022-08-05T10:17:47.388Z,8207
2022-08-05T10:22:48.617Z,12583
2022-08-05T10:28:09.997Z,11867
2022-08-05T10:32:50.401Z,12412
2022-08-05T10:37:45.305Z,12205
2022-08-05T10:42:43.730Z,10785
2022-08-05T10:48:27.583Z,12026
2022-08-05T10:52:47.073Z,12068
2022-08-05T10:57:44.669Z,10450
2022-08-05T11:02:50.390Z,12498
2022-08-05T11:08:01.545Z,12456
2022-08-05T11:12:42.957Z,12112
2022-08-05T11:17:53.328Z,7525
2022-08-05T11:22:42.978Z,1357
2022-08-05T11:27:51.606Z,1467
2022-08-05T11:32:43.000Z,1346
2022-08-05T11:38:26.908Z,1168
2022-08-05T11:42:42.986Z,1297
2022-08-05T11:47:49.087Z,1203
2022-08-05T11:52:43.945Z,1449
2022-08-05T11:58:08.877Z,1556
2022-08-05T12:02:43.053Z,1205
2022-08-05T12:08:03.020Z,1257
2022-08-05T12:12:46.693Z,1345
2022-08-05T12:18:03.501Z,1215
2022-08-05T12:22:42.980Z,1033
2022-08-05T12:27:52.856Z,902
2022-08-05T12:32:42.965Z,835
2022-08-05T12:37:43.033Z,675
2022-08-05T12:42:43.012Z,658
2022-08-05T12:47:43.379Z,683
2022-08-05T12:52:42.993Z,769
2022-08-05T12:58:39.429Z,705
2022-08-05T13:02:43.162Z,714
2022-08-05T13:07:59.614Z,698
2022-08-05T13:12:51.352Z,690
2022-08-05T13:17:42.934Z,686
2022-08-05T13:22:42.982Z,681
2022-08-05T13:27:43.041Z,673
2022-08-05T13:32:46.580Z,676
2022-08-05T13:37:43.003Z,676
2022-08-05T13:42:43.012Z,682
2022-08-05T13:48:08.359Z,421
2022-08-05T13:52:42.995Z,612
2022-08-05T13:57:48.915Z,875
2022-08-05T14:02:43.068Z,849
2022-08-05T14:07:56.832Z,900
2022-08-05T14:12:43.131Z,892
2022-08-05T14:17:44.084Z,915
2022-08-05T14:22:50.037Z,902
2022-08-05T14:27:47.286Z,947
2022-08-05T14:32:43.007Z,887
2022-08-05T14:37:47.324Z,648
2022-08-05T14:42:43.020Z,588
2022-08-05T14:48:04.446Z,624
2022-08-05T14:52:52.844Z,636
2022-08-05T14:57:54.086Z,566
2022-08-05T15:02:43.041Z,555
2022-08-05T15:08:04.647Z,569
2022-08-05T15:13:00.086Z,592
2022-08-05T15:17:45.186Z,608
2022-08-05T15:22:44.688Z,531
2022-08-05T15:27:52.178Z,604
2022-08-05T15:32:43.281Z,870
2022-08-05T15:38:08.965Z,610
2022-08-05T15:42:53.450Z,864
2022-08-05T15:47:43.096Z,707
2022-08-05T15:52:52.536Z,953
2022-08-05T15:57:43.058Z,917
2022-08-05T16:02:43.477Z,551
2022-08-05T16:07:46.384Z,536
2022-08-05T16:12:43.024Z,684
2022-08-05T16:17:43.036Z,620
2022-08-05T16:22:43.057Z,438
2022-08-05T16:32:43.065Z,500
2022-08-05T16:38:00.474Z,626
2022-08-05T16:42:43.061Z,435
2022-08-05T16:47:48.530Z,623
2022-08-05T16:52:46.056Z,526
2022-08-05T16:57:53.937Z,454
2022-08-05T17:02:43.193Z,447
2022-08-05T17:07:47.243Z,491
2022-08-05T17:12:50.839Z,478
2022-08-05T17:17:43.064Z,429
2022-08-05T17:22:47.541Z,455
2022-08-05T17:27:43.090Z,451
2022-08-05T17:32:43.287Z,410
2022-08-05T17:37:45.729Z,392
2022-08-05T17:42:49.793Z,375
2022-08-05T17:47:43.087Z,382
2022-08-05T17:52:53.493Z,356
2022-08-05T17:57:43.502Z,333
2022-08-05T18:02:43.252Z,315
2022-08-05T18:07:43.077Z,310
2022-08-05T18:12:43.206Z,304
2022-08-05T18:17:58.339Z,295
2022-08-05T18:22:46.061Z,286
2022-08-05T18:27:43.118Z,273
2022-08-05T18:32:53.042Z,265
2022-08-05T18:37:43.154Z,262
2022-08-05T18:42:43.255Z,259
2022-08-05T18:47:43.154Z,258
2022-08-05T18:52:50.653Z,261
2022-08-05T18:57:52.976Z,260
2022-08-05T19:02:43.611Z,256
2022-08-05T19:07:46.444Z,0
2022-08-05T19:12:43.409Z,0
2022-08-05T19:17:59.636Z,0
2022-08-05T19:27:43.096Z,0
2022-08-05T19:32:43.160Z,0
2022-08-05T19:37:47.138Z,0
2022-08-05T19:43:00.647Z,0
2022-08-05T19:47:43.220Z,0
2022-08-05T19:52:43.446Z,0
2022-08-05T19:57:46.716Z,0
2022-08-05T20:02:43.176Z,0
2022-08-05T20:07:47.672Z,0
2022-08-05T20:12:45.889Z,0
2022-08-05T20:17:43.150Z,0
2022-08-05T20:22:44.127Z,0
2022-08-05T20:27:43.152Z,0
2022-08-05T20:32:45.290Z,0
2022-08-05T20:38:05.199Z,0
2022-08-05T20:42:43.640Z,0
2022-08-05T20:47:43.201Z,0
2022-08-05T20:55:00.155Z,0
2022-08-05T20:57:44.759Z,0
2022-08-05T21:02:51.510Z,0
2022-08-05T21:07:51.070Z,0
2022-08-05T21:12:55.626Z,0
2022-08-05T21:17:43.210Z,0
2022-08-05T21:22:43.171Z,0
2022-08-05T21:27:47.583Z,0
2022-08-05T21:32:43.181Z,0
2022-08-05T21:37:47.087Z,0
2022-08-05T21:42:45.810Z,0
2022-08-05T21:47:55.872Z,0
2022-08-05T21:53:27.447Z,0
2022-08-05T21:57:43.224Z,0
2022-08-05T22:02:43.170Z,0
2022-08-05T22:07:58.063Z,0
2022-08-05T22:12:44.841Z,0
2022-08-05T22:17:48.622Z,0
2022-08-05T22:22:43.166Z,0
2022-08-05T22:28:04.728Z,0
2022-08-05T22:32:44.095Z,0
2022-08-05T22:37:58.324Z,0
2022-08-05T22:42:45.681Z,0
2022-08-05T22:47:49.780Z,0
2022-08-05T22:53:02.188Z,0
2022-08-05T22:57:43.732Z,0
2022-08-05T23:02:46.449Z,0
2022-08-05T23:07:48.735Z,0
2022-08-05T23:12:43.970Z,0
2022-08-05T23:18:00.254Z,0
2022-08-05T23:22:43.236Z,0
2022-08-05T23:27:57.965Z,0
2022-08-05T23:32:45.206Z,0
2022-08-05T23:37:43.608Z,0
2022-08-05T23:42:47.318Z,0
2022-08-05T23:53:01.507Z,0
2022-08-05T23:57:43.401Z,0
